createdAt,value
2023-03-22T00:02:11.100Z,98870.25
2023-03-22T00:04:39.069Z,98867.00
2023-03-22T00:07:05.684Z,98866.91
2023-03-22T00:09:32.218Z,98867.13
2023-03-22T00:11:58.685Z,98863.31
2023-03-22T00:14:25.486Z,98862.25
2023-03-22T00:16:52.164Z,98857.91
2023-03-22T00:19:18.850Z,98864.03
2023-03-22T00:21:45.303Z,98867.13
2023-03-22T00:24:11.879Z,98856.31
2023-03-22T00:26:38.416Z,98858.75
2023-03-22T00:29:04.952Z,98859.16
2023-03-22T00:31:31.551Z,98849.97
2023-03-22T00:33:58.618Z,98847.03
2023-03-22T00:36:25.105Z,98847.66
2023-03-22T00:38:51.933Z,98843.38
2023-03-22T00:41:18.425Z,98841.69
2023-03-22T00:43:44.865Z,98846.31
2023-03-22T00:46:11.385Z,98841.28
2023-03-22T00:48:37.833Z,98838.97
2023-03-22T00:51:04.424Z,98839.59
2023-03-22T00:53:30.960Z,98829.84
2023-03-22T00:55:57.530Z,98836.09
2023-03-22T01:03:58.894Z,98826.69
2023-03-22T01:06:25.633Z,98828.91
2023-03-22T01:08:52.214Z,98823.94
2023-03-22T01:11:18.652Z,98825.19
2023-03-22T01:13:45.228Z,98823.94
2023-03-22T01:16:11.763Z,98821.19
2023-03-22T01:18:38.258Z,98821.41
2023-03-22T01:21:04.695Z,98823.31
2023-03-22T01:23:31.251Z,98825.63
2023-03-22T01:25:57.686Z,98821.81
2023-03-22T01:28:26.893Z,98811.13
2023-03-22T01:30:53.682Z,98812.91
2023-03-22T01:33:21.263Z,98811.13
2023-03-22T01:35:47.760Z,98809.13
2023-03-22T01:38:14.274Z,98806.25
2023-03-22T01:40:41.602Z,98798.97
2023-03-22T01:43:08.951Z,98803.41
2023-03-22T01:45:36.047Z,98800.66
2023-03-22T01:48:02.607Z,98798.72
2023-03-22T01:50:29.130Z,98799.59
2023-03-22T01:52:55.824Z,98805.72
2023-03-22T01:55:22.280Z,98807.84
2023-03-22T01:57:48.936Z,98802.44
2023-03-22T02:00:16.088Z,98802.34
2023-03-22T02:02:42.721Z,98792.50
2023-03-22T02:05:09.226Z,98795.97
2023-03-22T02:07:36.605Z,98792.50
2023-03-22T02:10:04.800Z,98796.53
2023-03-22T02:12:31.230Z,98794.91
2023-03-22T02:14:57.651Z,98790.91
2023-03-22T02:17:24.371Z,98796.41
2023-03-22T02:19:50.800Z,98795.13
2023-03-22T02:22:18.184Z,98786.44
2023-03-22T02:24:44.815Z,98787.97
2023-03-22T02:27:11.332Z,98787.75
2023-03-22T02:29:37.759Z,98794.94
2023-03-22T02:32:04.317Z,98793.25
2023-03-22T02:34:30.756Z,98790.50
2023-03-22T02:36:57.336Z,98791.97
2023-03-22T02:39:23.779Z,98786.06
2023-03-22T02:41:50.305Z,98785.31
2023-03-22T02:44:17.787Z,98780.78
2023-03-22T02:46:44.636Z,98783.41
2023-03-22T02:49:11.057Z,98785.84
2023-03-22T02:51:37.793Z,98777.91
2023-03-22T02:54:04.393Z,98781.63
2023-03-22T02:56:31.384Z,98785.09
2023-03-22T02:58:58.200Z,98782.25
2023-03-22T03:01:24.708Z,98779.72
2023-03-22T03:03:51.963Z,98784.03
2023-03-22T03:06:18.457Z,98782.25
2023-03-22T03:08:45.891Z,98788.94
2023-03-22T03:11:12.547Z,98783.41
2023-03-22T03:13:39.040Z,98791.13
2023-03-22T03:16:05.625Z,98780.34
2023-03-22T03:18:32.096Z,98790.69
2023-03-22T03:20:58.524Z,98790.63
2023-03-22T03:23:24.973Z,98788.72
2023-03-22T03:25:51.758Z,98789.75
2023-03-22T03:28:19.313Z,98792.81
2023-03-22T03:30:45.965Z,98786.91
2023-03-22T03:33:13.050Z,98791.28
2023-03-22T03:35:39.733Z,98791.97
2023-03-22T03:38:06.401Z,98802.34
2023-03-22T03:40:32.809Z,98790.91
2023-03-22T03:42:59.302Z,98792.25
2023-03-22T03:45:25.980Z,98794.28
2023-03-22T03:47:52.534Z,98788.75
2023-03-22T03:50:19.420Z,98790.91
2023-03-22T03:52:46.097Z,98787.06
2023-03-22T03:55:12.969Z,98789.44
2023-03-22T03:57:39.859Z,98783.28
2023-03-22T04:00:06.514Z,98790.91
2023-03-22T04:02:32.973Z,98790.41
2023-03-22T04:04:59.660Z,98788.38
2023-03-22T04:07:26.547Z,98795.47
2023-03-22T04:09:53.196Z,98789.44
2023-03-22T04:12:20.237Z,98795.34
2023-03-22T04:14:46.916Z,98796.84
2023-03-22T04:17:13.434Z,98787.97
2023-03-22T04:19:41.256Z,98800.75
2023-03-22T04:22:08.145Z,98797.28
2023-03-22T04:24:35.402Z,98801.50
2023-03-22T04:27:02.044Z,98802.78
2023-03-22T04:29:29.026Z,98807.00
2023-03-22T04:31:56.103Z,98804.34
2023-03-22T04:34:22.544Z,98808.47
2023-03-22T04:36:49.167Z,98809.47
2023-03-22T04:39:15.700Z,98810.50
2023-03-22T04:41:42.286Z,98814.84
2023-03-22T04:44:08.684Z,98809.97
2023-03-22T04:46:35.628Z,98803.84
2023-03-22T04:49:02.057Z,98803.84
2023-03-22T04:51:28.706Z,98803.63
2023-03-22T04:53:55.098Z,98800.88
2023-03-22T04:56:21.856Z,98803.28
2023-03-22T04:58:48.637Z,98800.13
2023-03-22T05:01:18.221Z,98801.50
2023-03-22T05:03:44.786Z,98804.28
2023-03-22T05:06:11.529Z,98804.03
2023-03-22T05:08:38.801Z,98811.88
2023-03-22T05:11:05.431Z,98805.72
2023-03-22T05:13:31.870Z,98811.00
2023-03-22T05:15:58.743Z,98815.66
2023-03-22T05:18:25.259Z,98816.53
2023-03-22T05:20:51.772Z,98821.63
2023-03-22T05:23:18.197Z,98813.16
2023-03-22T05:25:44.730Z,98816.63
2023-03-22T05:28:11.283Z,98822.97
2023-03-22T05:30:38.095Z,98824.38
2023-03-22T05:33:04.782Z,98826.91
2023-03-22T05:35:31.442Z,98830.06
2023-03-22T05:37:57.923Z,98828.78
2023-03-22T05:40:24.520Z,98831.94
2023-03-22T05:42:50.996Z,98837.06
2023-03-22T05:45:17.463Z,98835.44
2023-03-22T05:47:44.354Z,98839.59
2023-03-22T05:50:10.851Z,98842.44
2023-03-22T05:52:37.300Z,98838.22
2023-03-22T05:55:03.741Z,98844.38
2023-03-22T05:57:30.237Z,98851.53
2023-03-22T05:59:56.776Z,98851.03
2023-03-22T06:02:23.478Z,98852.94
2023-03-22T06:04:50.349Z,98848.78
2023-03-22T06:07:16.977Z,98857.75
2023-03-22T06:09:43.551Z,98858.88
2023-03-22T06:12:10.126Z,98860.88
2023-03-22T06:14:37.128Z,98861.78
2023-03-22T06:17:03.963Z,98858.47
2023-03-22T06:19:30.438Z,98868.91
2023-03-22T06:21:56.994Z,98868.16
2023-03-22T06:24:23.446Z,98872.19
2023-03-22T06:26:49.989Z,98868.81
2023-03-22T06:29:16.436Z,98872.88
2023-03-22T06:31:43.075Z,98866.75
2023-03-22T06:34:10.295Z,98868.03
2023-03-22T06:36:36.687Z,98867.50
2023-03-22T06:39:03.234Z,98871.66
2023-03-22T06:41:30.055Z,98871.56
2023-03-22T06:43:56.698Z,98875.75
2023-03-22T06:46:23.452Z,98879.78
2023-03-22T06:48:49.995Z,98876.41
2023-03-22T06:51:16.571Z,98870.06
2023-03-22T06:53:43.399Z,98878.41
2023-03-22T06:56:09.831Z,98874.19
2023-03-22T06:58:36.815Z,98881.94
2023-03-22T07:01:03.582Z,98879.63
2023-03-22T07:03:30.240Z,98873.84
2023-03-22T07:05:56.817Z,98877.13
2023-03-22T07:08:23.239Z,98869.88
2023-03-22T07:10:49.672Z,98878.88
2023-03-22T07:13:16.104Z,98876.91
2023-03-22T07:15:43.299Z,98873.91
2023-03-22T07:18:09.931Z,98866.22
2023-03-22T07:20:37.239Z,98876.78
2023-03-22T07:23:04.158Z,98864.56
2023-03-22T07:25:30.679Z,98867.75
2023-03-22T07:27:58.134Z,98873.47
2023-03-22T07:30:24.629Z,98869.84
2023-03-22T07:32:51.581Z,98877.22
2023-03-22T07:35:18.070Z,98872.97
2023-03-22T07:37:44.785Z,98875.16
2023-03-22T07:40:11.461Z,98877.50
2023-03-22T07:42:38.671Z,98886.63
2023-03-22T07:45:06.325Z,98872.63
2023-03-22T07:47:40.917Z,98871.66
2023-03-22T07:50:08.936Z,98878.06
2023-03-22T07:52:35.362Z,98869.38
2023-03-22T07:55:01.803Z,98867.06
2023-03-22T07:57:28.365Z,98868.38
2023-03-22T07:59:55.140Z,98874.78
2023-03-22T08:02:22.014Z,98864.28
2023-03-22T08:04:51.845Z,98869.97
2023-03-22T08:07:19.069Z,98858.84
2023-03-22T08:09:45.627Z,98871.28
2023-03-22T08:12:12.561Z,98862.97
2023-03-22T08:14:41.565Z,98863.22
2023-03-22T08:17:08.018Z,98871.16
2023-03-22T08:19:34.522Z,98874.66
2023-03-22T08:22:00.983Z,98877.47
2023-03-22T08:24:27.719Z,98876.22
2023-03-22T08:26:54.509Z,98871.38
2023-03-22T08:29:21.465Z,98873.31
2023-03-22T08:31:47.945Z,98868.94
2023-03-22T08:34:14.544Z,98865.94
2023-03-22T08:36:40.996Z,98862.19
2023-03-22T08:39:07.438Z,98870.50
2023-03-22T08:41:33.964Z,98868.81
2023-03-22T08:44:00.398Z,98871.38
2023-03-22T08:46:27.202Z,98859.03
2023-03-22T08:48:53.834Z,98861.94
2023-03-22T08:51:21.339Z,98863.97
2023-03-22T08:53:47.824Z,98862.91
2023-03-22T08:56:14.300Z,98859.47
2023-03-22T08:58:40.792Z,98856.16
2023-03-22T09:01:07.912Z,98863.19
2023-03-22T09:03:34.561Z,98864.28
2023-03-22T09:06:01.019Z,98866.56
2023-03-22T09:08:27.766Z,98861.22
2023-03-22T09:10:54.688Z,98856.28
2023-03-22T09:13:21.132Z,98863.53
2023-03-22T09:15:48.348Z,98854.03
2023-03-22T09:18:14.785Z,98849.16
2023-03-22T09:20:41.712Z,98849.34
2023-03-22T09:23:08.368Z,98852.47
2023-03-22T09:25:35.553Z,98857.47
2023-03-22T09:28:02.014Z,98849.88
2023-03-22T09:30:28.667Z,98844.03
2023-03-22T09:32:55.325Z,98848.44
2023-03-22T09:35:22.309Z,98844.03
2023-03-22T09:37:51.582Z,98840.84
2023-03-22T09:40:17.968Z,98835.16
2023-03-22T09:42:46.952Z,98835.81
2023-03-22T09:45:13.380Z,98838.31
2023-03-22T09:47:44.830Z,98836.97
2023-03-22T09:50:11.893Z,98842.31
2023-03-22T09:52:38.756Z,98839.63
2023-03-22T09:55:05.283Z,98835.06
2023-03-22T09:57:31.742Z,98837.91
2023-03-22T09:59:58.403Z,98834.28
2023-03-22T10:02:25.029Z,98826.34
2023-03-22T10:04:51.499Z,98821.41
2023-03-22T10:07:18.224Z,98828.56
2023-03-22T10:09:45.803Z,98821.69
2023-03-22T10:12:13.370Z,98815.91
2023-03-22T10:14:39.817Z,98804.41
2023-03-22T10:17:06.464Z,98808.78
2023-03-22T10:19:32.880Z,98805.31
2023-03-22T10:21:59.446Z,98815.19
2023-03-22T10:24:25.931Z,98815.06
2023-03-22T10:26:52.381Z,98804.75
2023-03-22T10:29:18.957Z,98806.00
2023-03-22T10:31:45.743Z,98797.66
2023-03-22T10:34:12.461Z,98802.44
2023-03-22T10:36:39.452Z,98799.53
2023-03-22T10:39:05.947Z,98798.41
2023-03-22T10:41:34.798Z,98797.19
2023-03-22T10:44:01.720Z,98789.09
2023-03-22T10:46:28.234Z,98782.94
2023-03-22T10:48:55.920Z,98788.22
2023-03-22T10:51:22.950Z,98788.72
2023-03-22T10:53:49.478Z,98786.72
2023-03-22T10:56:15.926Z,98794.75
2023-03-22T10:58:42.908Z,98784.66
2023-03-22T11:01:09.457Z,98788.66
2023-03-22T11:03:36.444Z,98781.00
2023-03-22T11:06:03.016Z,98783.25
2023-03-22T11:08:30.436Z,98793.16
2023-03-22T11:10:58.783Z,98781.38
2023-03-22T11:13:25.340Z,98785.88
2023-03-22T11:15:52.035Z,98780.00
2023-03-22T11:18:18.541Z,98789.38
2023-03-22T11:20:45.394Z,98787.31
2023-03-22T11:23:12.201Z,98788.00
2023-03-22T11:25:38.703Z,98777.91
2023-03-22T11:28:07.488Z,98777.06
2023-03-22T11:30:34.284Z,98771.31
2023-03-22T11:33:02.645Z,98764.59
2023-03-22T11:35:29.173Z,98758.97
2023-03-22T11:37:55.566Z,98763.75
2023-03-22T11:40:23.057Z,98747.63
2023-03-22T11:42:50.422Z,98744.38
2023-03-22T11:45:16.848Z,98746.63
2023-03-22T11:47:43.391Z,98748.44
2023-03-22T11:50:10.726Z,98743.25
2023-03-22T11:52:37.299Z,98743.94
2023-03-22T11:55:03.706Z,98741.13
2023-03-22T11:57:30.160Z,98744.09
2023-03-22T11:59:58.972Z,98742.69
2023-03-22T12:02:25.533Z,98739.06
2023-03-22T12:04:52.111Z,98746.34
2023-03-22T12:07:18.596Z,98746.63
2023-03-22T12:09:45.315Z,98746.91
2023-03-22T12:12:12.046Z,98731.31
2023-03-22T12:14:38.547Z,98730.06
2023-03-22T12:17:05.080Z,98725.28
2023-03-22T12:19:31.556Z,98723.59
2023-03-22T12:21:58.441Z,98719.06
2023-03-22T12:24:25.140Z,98720.16
2023-03-22T12:26:51.976Z,98720.16
2023-03-22T12:29:20.462Z,98715.34
2023-03-22T12:31:47.132Z,98706.25
2023-03-22T12:34:13.767Z,98712.78
2023-03-22T12:36:40.175Z,98708.63
2023-03-22T12:39:07.264Z,98714.00
2023-03-22T12:41:33.815Z,98706.06
2023-03-22T12:44:00.383Z,98702.41
2023-03-22T12:46:26.852Z,98688.56
2023-03-22T12:48:55.970Z,98688.00
2023-03-22T12:51:22.413Z,98681.22
2023-03-22T12:53:48.976Z,98685.19
2023-03-22T12:56:15.570Z,98689.75
2023-03-22T12:58:43.813Z,98677.47
2023-03-22T13:01:11.974Z,98675.91
2023-03-22T13:03:39.401Z,98674.69
2023-03-22T13:06:06.287Z,98674.22
2023-03-22T13:08:32.705Z,98669.66
2023-03-22T13:10:59.122Z,98671.75
2023-03-22T13:13:26.042Z,98665.00
2023-03-22T13:15:52.496Z,98665.16
2023-03-22T13:18:19.078Z,98657.69
2023-03-22T13:20:45.496Z,98647.47
2023-03-22T13:23:12.079Z,98645.16
2023-03-22T13:25:41.963Z,98639.19
2023-03-22T13:28:09.923Z,98635.53
2023-03-22T13:30:36.809Z,98634.69
2023-03-22T13:33:03.818Z,98635.31
2023-03-22T13:35:30.366Z,98637.47
2023-03-22T13:37:57.379Z,98637.53
2023-03-22T13:40:23.817Z,98630.19
2023-03-22T13:42:50.264Z,98628.84
2023-03-22T13:45:16.679Z,98632.63
2023-03-22T13:47:43.580Z,98626.47
2023-03-22T13:50:13.542Z,98623.84
2023-03-22T13:52:40.289Z,98625.69
2023-03-22T13:55:06.719Z,98620.22
2023-03-22T13:57:33.580Z,98622.41
2023-03-22T14:00:11.144Z,98619.28
2023-03-22T14:02:39.513Z,98625.91
2023-03-22T14:05:05.974Z,98610.72
2023-03-22T14:07:32.415Z,98607.81
2023-03-22T14:09:59.260Z,98602.56
2023-03-22T14:12:26.766Z,98607.00
2023-03-22T14:14:54.196Z,98603.56
2023-03-22T14:17:20.649Z,98595.94
2023-03-22T14:19:47.192Z,98592.31
